createdAt,value
2018-08-22T00:00:15.806Z,74.79
2018-08-22T00:01:15.484Z,75.39
2018-08-22T00:02:15.472Z,75.59
2018-08-22T00:03:15.518Z,75.79
2018-08-22T00:04:16.250Z,75.73
2018-08-22T00:05:15.778Z,75.93
2018-08-22T00:06:15.597Z,75.99
2018-08-22T00:07:15.534Z,76.03
2018-08-22T00:08:15.399Z,76.30
2018-08-22T00:09:15.512Z,76.23
2018-08-22T00:10:15.344Z,76.14
2018-08-22T00:11:15.603Z,76.34
2018-08-22T00:12:15.625Z,76.34
2018-08-22T00:13:15.312Z,76.14
2018-08-22T00:14:15.443Z,76.74
2018-08-22T00:15:15.500Z,76.67
2018-08-22T00:16:15.360Z,76.34
2018-08-22T00:17:15.506Z,76.64
2018-08-22T00:18:15.327Z,76.64
2018-08-22T00:19:15.558Z,76.87
2018-08-22T00:20:15.257Z,76.57
2018-08-22T00:21:15.223Z,76.67
2018-08-22T00:22:15.711Z,77.88
2018-08-22T00:23:15.281Z,77.17
2018-08-22T00:24:15.905Z,77.08
2018-08-22T00:25:15.610Z,76.97
2018-08-22T00:26:15.335Z,77.38
2018-08-22T00:27:15.297Z,77.58
2018-08-22T00:28:15.298Z,76.87
2018-08-22T00:29:15.378Z,77.48
2018-08-22T00:30:15.617Z,76.57
2018-08-22T00:31:15.097Z,76.17
2018-08-22T00:32:15.533Z,77.98
2018-08-22T00:33:15.071Z,77.68
2018-08-22T00:34:15.059Z,77.28
2018-08-22T00:35:15.061Z,76.40
2018-08-22T00:36:15.103Z,76.47
2018-08-22T00:37:15.556Z,76.81
2018-08-22T00:38:15.680Z,76.71
2018-08-22T00:39:15.079Z,76.47
2018-08-22T00:40:15.039Z,76.71
2018-08-22T00:41:15.023Z,76.61
2018-08-22T00:42:14.987Z,77.92
2018-08-22T00:43:14.954Z,76.71
2018-08-22T00:44:15.320Z,77.72
2018-08-22T00:45:15.539Z,77.51
2018-08-22T00:46:15.439Z,76.91
2018-08-22T00:47:14.928Z,76.51
2018-08-22T00:48:14.900Z,77.21
2018-08-22T00:49:14.879Z,77.82
2018-08-22T00:50:14.870Z,77.62
2018-08-22T00:51:14.861Z,77.21
2018-08-22T00:52:14.868Z,77.01
2018-08-22T00:53:14.836Z,77.21
2018-08-22T00:54:14.828Z,77.92
2018-08-22T00:55:14.812Z,77.11
2018-08-22T00:56:14.803Z,77.51
2018-08-22T00:57:14.818Z,77.66
2018-08-22T00:58:14.785Z,77.51
2018-08-22T00:59:14.770Z,77.15
2018-08-22T01:00:14.762Z,77.31
2018-08-22T01:01:14.751Z,77.51
2018-08-22T01:02:14.780Z,77.21
2018-08-22T01:03:14.719Z,77.21
2018-08-22T01:04:14.706Z,77.62
2018-08-22T01:05:14.705Z,78.83
2018-08-22T01:06:14.685Z,77.92
2018-08-22T01:07:14.706Z,77.01
2018-08-22T01:08:14.670Z,77.72
2018-08-22T01:09:14.654Z,77.72
2018-08-22T01:10:14.639Z,77.31
2018-08-22T01:11:14.630Z,77.72
2018-08-22T01:12:14.642Z,78.12
2018-08-22T01:13:14.604Z,77.72
2018-08-22T01:14:14.590Z,78.02
2018-08-22T01:15:14.581Z,78.22
2018-08-22T01:16:14.565Z,78.63
2018-08-22T01:17:14.586Z,78.12
2018-08-22T01:18:14.548Z,78.06
2018-08-22T01:19:14.535Z,78.92
2018-08-22T01:20:14.527Z,78.63
2018-08-22T01:21:14.507Z,78.02
2018-08-22T01:22:14.523Z,78.32
2018-08-22T01:23:14.494Z,78.12
2018-08-22T01:24:14.481Z,78.22
2018-08-22T01:25:14.470Z,78.12
2018-08-22T01:26:14.453Z,79.23
2018-08-22T01:27:14.467Z,78.83
2018-08-22T01:28:14.431Z,78.52
2018-08-22T01:29:14.417Z,78.52
2018-08-22T01:30:14.441Z,78.56
2018-08-22T01:31:14.388Z,78.42
2018-08-22T01:32:14.378Z,78.52
2018-08-22T01:33:14.370Z,78.52
2018-08-22T01:34:14.362Z,78.76
2018-08-22T01:35:14.340Z,78.83
2018-08-22T01:36:14.359Z,78.52
2018-08-22T01:37:14.318Z,79.06
2018-08-22T01:38:14.304Z,78.46
2018-08-22T01:39:14.301Z,78.86
2018-08-22T01:40:14.284Z,78.96
2018-08-22T01:41:14.299Z,78.76
2018-08-22T01:42:14.266Z,79.16
2018-08-22T01:43:14.253Z,79.06
2018-08-22T01:44:14.234Z,78.96
2018-08-22T01:45:14.228Z,79.27
2018-08-22T01:46:14.250Z,79.47
2018-08-22T01:47:14.202Z,79.06
2018-08-22T01:48:14.193Z,79.27
2018-08-22T01:49:14.177Z,79.36
2018-08-22T01:50:14.168Z,79.27
2018-08-22T01:51:14.155Z,79.21
2018-08-22T01:52:14.168Z,79.30
2018-08-22T01:53:14.136Z,79.50
2018-08-22T01:54:14.120Z,79.81
2018-08-22T01:55:14.113Z,79.71
2018-08-22T01:56:14.100Z,79.57
2018-08-22T01:57:14.115Z,80.18
2018-08-22T01:58:14.076Z,79.50
2018-08-22T01:59:14.067Z,79.21
2018-08-22T02:00:14.050Z,78.70
2018-08-22T02:01:14.041Z,79.21
2018-08-22T02:02:14.050Z,79.81
2018-08-22T02:03:14.019Z,79.71
2018-08-22T02:04:14.003Z,79.61
2018-08-22T02:05:13.995Z,78.90
2018-08-22T02:06:13.980Z,79.61
2018-08-22T02:07:14.004Z,80.51
2018-08-22T02:08:13.962Z,80.62
2018-08-22T02:09:13.946Z,80.51
2018-08-22T02:10:13.936Z,79.21
2018-08-22T02:11:13.926Z,80.51
2018-08-22T02:12:13.911Z,79.81
2018-08-22T02:13:13.918Z,79.81
2018-08-22T02:14:13.893Z,79.74
2018-08-22T02:15:13.880Z,80.55
2018-08-22T02:16:13.870Z,80.62
2018-08-22T02:17:13.880Z,80.41
2018-08-22T02:18:13.841Z,80.35
2018-08-22T02:19:13.837Z,80.21
2018-08-22T02:20:13.817Z,80.35
2018-08-22T02:21:13.812Z,80.35
2018-08-22T02:22:13.817Z,80.45
2018-08-22T02:23:13.790Z,80.85
2018-08-22T02:24:13.781Z,80.96
2018-08-22T02:25:13.844Z,80.35
2018-08-22T02:26:13.756Z,79.94
2018-08-22T02:27:13.737Z,80.35
2018-08-22T02:28:13.762Z,80.55
2018-08-22T02:29:13.716Z,80.85
2018-08-22T02:30:13.707Z,80.85
2018-08-22T02:31:13.693Z,80.76
2018-08-22T02:32:13.680Z,81.05
2018-08-22T02:33:13.672Z,81.16
2018-08-22T02:34:13.683Z,81.16
2018-08-22T02:35:13.652Z,80.96
2018-08-22T02:36:13.636Z,81.46
2018-08-22T02:37:13.626Z,81.40
2018-08-22T02:38:13.613Z,81.96
2018-08-22T02:39:13.634Z,81.90
2018-08-22T02:40:13.590Z,82.27
2018-08-22T02:41:13.576Z,82.51
2018-08-22T02:42:13.569Z,82.67
2018-08-22T02:43:13.552Z,82.57
2018-08-22T02:44:13.541Z,82.61
2018-08-22T02:45:13.564Z,82.41
2018-08-22T02:46:13.521Z,82.47
2018-08-22T02:47:13.510Z,82.31
2018-08-22T02:48:13.500Z,82.41
2018-08-22T02:49:13.483Z,82.31
2018-08-22T02:50:13.475Z,82.51
2018-08-22T02:51:13.496Z,81.80
2018-08-22T02:52:13.452Z,81.40
2018-08-22T02:53:13.437Z,82.71
2018-08-22T02:54:13.422Z,82.41
2018-08-22T02:55:13.420Z,82.71
2018-08-22T02:56:13.404Z,82.35
2018-08-22T02:57:13.417Z,82.71
2018-08-22T02:58:13.388Z,82.61
2018-08-22T02:59:13.365Z,82.65
2018-08-22T03:00:13.359Z,82.85
2018-08-22T03:01:13.350Z,82.71
2018-08-22T03:02:13.363Z,82.65
2018-08-22T03:03:13.328Z,82.71
2018-08-22T03:04:13.311Z,82.51
2018-08-22T03:05:13.300Z,82.55
2018-08-22T03:06:13.290Z,82.55
2018-08-22T03:07:13.302Z,82.91
2018-08-22T03:08:13.269Z,83.36
2018-08-22T03:09:13.249Z,83.05
2018-08-22T03:10:13.270Z,83.15
2018-08-22T03:11:13.226Z,83.46
2018-08-22T03:12:13.248Z,83.32
2018-08-22T03:13:13.212Z,83.62
2018-08-22T03:14:13.191Z,84.06
2018-08-22T03:15:13.192Z,83.62
2018-08-22T03:16:13.182Z,84.06
2018-08-22T03:17:13.156Z,83.92
2018-08-22T03:18:13.177Z,83.62
2018-08-22T03:19:13.140Z,84.17
2018-08-22T03:20:13.128Z,84.23
2018-08-22T03:21:13.114Z,84.12
2018-08-22T03:22:13.099Z,84.12
2018-08-22T03:23:13.128Z,83.62
2018-08-22T03:24:13.078Z,84.03
2018-08-22T03:25:13.073Z,83.72
2018-08-22T03:26:13.081Z,83.52
2018-08-22T03:27:13.045Z,83.42
2018-08-22T03:28:13.038Z,83.32
2018-08-22T03:29:13.051Z,83.58
2018-08-22T03:30:13.010Z,83.82
2018-08-22T03:31:12.999Z,83.72
2018-08-22T03:32:12.989Z,84.12
2018-08-22T03:33:12.974Z,83.92
2018-08-22T03:34:12.967Z,83.58
2018-08-22T03:35:12.986Z,83.38
2018-08-22T03:36:12.938Z,83.28
2018-08-22T03:37:12.931Z,83.38
2018-08-22T03:38:12.914Z,83.28
2018-08-22T03:39:12.909Z,82.67
2018-08-22T03:40:12.897Z,82.78
2018-08-22T03:41:12.901Z,83.18
2018-08-22T03:42:12.874Z,83.28
2018-08-22T03:43:12.852Z,83.07
2018-08-22T03:44:12.841Z,83.24
2018-08-22T03:45:12.839Z,83.18
2018-08-22T03:46:12.842Z,83.34
2018-08-22T03:47:12.819Z,82.93
2018-08-22T03:48:12.800Z,83.24
2018-08-22T03:49:12.791Z,82.87
2018-08-22T03:50:12.774Z,82.84
2018-08-22T03:51:12.798Z,82.13
2018-08-22T03:52:12.754Z,82.73
2018-08-22T03:53:12.739Z,82.33
2018-08-22T03:54:12.731Z,82.73
2018-08-22T03:55:12.716Z,82.73
2018-08-22T03:56:12.702Z,82.53
2018-08-22T03:57:12.735Z,82.43
2018-08-22T03:58:12.679Z,82.64
2018-08-22T03:59:12.679Z,82.29
2018-08-22T04:00:12.664Z,82.29
2018-08-22T04:01:12.642Z,82.33
2018-08-22T04:02:12.639Z,82.03
2018-08-22T04:03:12.644Z,81.48
2018-08-22T04:04:12.612Z,81.62
2018-08-22T04:05:12.602Z,81.52
2018-08-22T04:06:12.592Z,81.68
2018-08-22T04:07:12.572Z,82.19
2018-08-22T04:08:12.589Z,82.09
2018-08-22T04:09:12.552Z,81.28
2018-08-22T04:10:12.536Z,80.47
2018-08-22T04:11:12.533Z,81.18
2018-08-22T04:12:12.512Z,80.78
2018-08-22T04:13:12.534Z,80.58
2018-08-22T04:14:12.499Z,80.78
2018-08-22T04:15:12.480Z,80.07
2018-08-22T04:16:12.474Z,80.07
2018-08-22T04:17:12.455Z,80.68
2018-08-22T04:18:12.443Z,80.98
2018-08-22T04:19:12.457Z,80.88
2018-08-22T04:20:12.423Z,80.78
2018-08-22T04:21:12.408Z,80.68
2018-08-22T04:22:12.399Z,80.88
2018-08-22T04:23:12.386Z,80.58
2018-08-22T04:24:12.404Z,81.08
2018-08-22T04:25:12.367Z,80.98
2018-08-22T04:26:12.349Z,81.48
2018-08-22T04:27:12.340Z,81.08
2018-08-22T04:28:12.331Z,81.28
2018-08-22T04:29:12.316Z,81.62
2018-08-22T04:30:12.332Z,81.62
2018-08-22T04:31:12.287Z,81.62
2018-08-22T04:32:12.279Z,81.82
2018-08-22T04:33:12.272Z,81.42
2018-08-22T04:34:12.252Z,81.42
2018-08-22T04:35:12.278Z,81.02
2018-08-22T04:36:12.232Z,81.42
2018-08-22T04:37:12.222Z,82.53
2018-08-22T04:38:12.207Z,82.73
2018-08-22T04:39:12.200Z,82.67
2018-08-22T04:40:12.183Z,82.64
2018-08-22T04:41:12.211Z,82.33
2018-08-22T04:42:12.159Z,82.57
2018-08-22T04:43:12.156Z,82.57
2018-08-22T04:44:12.139Z,82.87
2018-08-22T04:45:12.127Z,82.67
2018-08-22T04:46:12.111Z,83.07
2018-08-22T04:47:12.129Z,82.98
2018-08-22T04:48:12.136Z,83.38
2018-08-22T04:49:12.077Z,83.07
2018-08-22T04:50:12.076Z,83.01
2018-08-22T04:51:12.053Z,83.22
2018-08-22T04:52:12.081Z,83.28
2018-08-22T04:53:12.034Z,83.42
2018-08-22T04:54:12.019Z,83.12
2018-08-22T04:55:12.016Z,82.91
2018-08-22T04:56:12.005Z,83.42
2018-08-22T04:57:11.988Z,83.62
2018-08-22T04:58:12.008Z,82.81
2018-08-22T04:59:11.964Z,83.01
2018-08-22T05:00:11.953Z,83.52
2018-08-22T05:01:11.944Z,83.26
2018-08-22T05:02:11.931Z,83.42
2018-08-22T05:03:11.914Z,83.72
2018-08-22T05:04:11.941Z,83.32
2018-08-22T05:05:11.900Z,83.32
2018-08-22T05:06:11.887Z,83.46
2018-08-22T05:07:11.874Z,83.32
2018-08-22T05:08:11.866Z,83.52
2018-08-22T05:09:11.846Z,83.62
2018-08-22T05:10:11.859Z,83.86
2018-08-22T05:11:11.828Z,84.06
2018-08-22T05:12:11.810Z,83.96
2018-08-22T05:13:11.808Z,84.06
2018-08-22T05:14:11.793Z,84.12
2018-08-22T05:15:11.805Z,83.72
2018-08-22T05:16:11.765Z,83.62
2018-08-22T05:17:11.758Z,84.06
2018-08-22T05:18:11.747Z,83.26
2018-08-22T05:19:11.731Z,83.66
2018-08-22T05:20:11.759Z,83.36
2018-08-22T05:21:11.705Z,83.42
2018-08-22T05:22:11.698Z,83.52
2018-08-22T05:23:11.682Z,83.86
2018-08-22T05:24:11.677Z,84.12
2018-08-22T05:25:11.664Z,83.86
2018-08-22T05:26:11.683Z,83.82
2018-08-22T05:27:11.646Z,83.52
2018-08-22T05:28:11.627Z,83.52
2018-08-22T05:29:11.620Z,83.32
2018-08-22T05:30:11.675Z,83.36
2018-08-22T05:31:11.590Z,83.72
2018-08-22T05:32:11.611Z,83.86
2018-08-22T05:33:11.576Z,84.03
2018-08-22T05:34:11.565Z,83.82
2018-08-22T05:35:11.544Z,83.62
2018-08-22T05:36:11.532Z,83.82
2018-08-22T05:37:11.553Z,83.72
2018-08-22T05:38:11.507Z,83.22
2018-08-22T05:39:11.499Z,83.62
2018-08-22T05:40:11.494Z,83.42
2018-08-22T05:41:11.472Z,83.32
2018-08-22T05:42:11.503Z,83.07
2018-08-22T05:43:11.449Z,83.18
2018-08-22T05:44:11.446Z,83.01
2018-08-22T05:45:11.429Z,82.67
2018-08-22T05:46:11.424Z,82.27
2018-08-22T05:47:11.403Z,82.47
2018-08-22T05:48:11.412Z,82.57
2018-08-22T05:49:11.409Z,82.57
2018-08-22T05:50:11.365Z,82.37
2018-08-22T05:51:11.362Z,82.53
2018-08-22T05:52:11.346Z,81.93
2018-08-22T05:53:11.368Z,81.73
2018-08-22T05:54:11.324Z,81.42
2018-08-22T05:55:11.305Z,81.12
2018-08-22T05:56:11.296Z,81.38
2018-08-22T05:57:11.290Z,80.47
2018-08-22T05:58:11.269Z,80.88
2018-08-22T05:59:11.301Z,80.27
2018-08-22T06:00:11.248Z,78.86
2018-08-22T06:01:11.241Z,79.23
2018-08-22T06:02:11.224Z,78.83
2018-08-22T06:03:11.238Z,78.42
2018-08-22T06:04:11.201Z,78.83
2018-08-22T06:05:11.225Z,77.72
2018-08-22T06:06:11.178Z,77.42
2018-08-22T06:07:11.168Z,77.11
2018-08-22T06:08:11.158Z,77.58
2018-08-22T06:09:11.211Z,77.51
2018-08-22T06:10:11.129Z,77.78
2018-08-22T06:11:11.143Z,77.28
2018-08-22T06:12:11.113Z,77.28
2018-08-22T06:13:11.095Z,76.54
2018-08-22T06:14:11.090Z,76.64
2018-08-22T06:15:11.073Z,76.94
2018-08-22T06:16:11.082Z,76.64
2018-08-22T06:17:11.059Z,76.43
2018-08-22T06:18:11.036Z,76.10
2018-08-22T06:19:11.032Z,75.19
2018-08-22T06:20:11.018Z,74.58
2018-08-22T06:21:11.027Z,74.49
2018-08-22T06:22:10.994Z,74.05
2018-08-22T06:23:10.978Z,73.75
2018-08-22T06:24:10.968Z,73.81
2018-08-22T06:25:10.959Z,72.71
2018-08-22T06:26:10.979Z,73.27
2018-08-22T06:27:10.935Z,72.13
2018-08-22T06:28:10.925Z,72.33
2018-08-22T06:29:10.914Z,71.73
2018-08-22T06:30:10.894Z,70.73
2018-08-22T06:31:10.892Z,71.20
2018-08-22T06:32:10.904Z,71.09
2018-08-22T06:33:10.861Z,71.40
2018-08-22T06:34:10.858Z,69.56
2018-08-22T06:35:10.839Z,69.85
2018-08-22T06:36:10.849Z,70.26
2018-08-22T06:37:10.895Z,69.42
2018-08-22T06:38:10.808Z,69.29
2018-08-22T06:39:10.798Z,69.59
2018-08-22T06:40:10.787Z,69.79
2018-08-22T06:41:10.773Z,68.89
2018-08-22T06:42:10.768Z,68.55
2018-08-22T06:43:10.785Z,69.86
2018-08-22T06:44:10.761Z,68.85
2018-08-22T06:45:10.726Z,68.92
2018-08-22T06:46:10.722Z,69.12
2018-08-22T06:47:10.699Z,68.62
2018-08-22T06:48:10.688Z,67.92
2018-08-22T06:49:10.721Z,68.59
2018-08-22T06:50:10.707Z,68.29
2018-08-22T06:51:10.661Z,67.79
2018-08-22T06:52:10.641Z,67.49
2018-08-22T06:53:10.638Z,68.09
2018-08-22T06:54:10.627Z,67.46
2018-08-22T06:55:10.638Z,67.02
2018-08-22T06:56:10.598Z,67.02
2018-08-22T06:57:10.593Z,66.02
2018-08-22T06:58:10.575Z,65.33
2018-08-22T06:59:10.596Z,65.22
2018-08-22T07:00:10.550Z,65.39
2018-08-22T07:01:10.546Z,65.59
2018-08-22T07:02:10.533Z,64.89
2018-08-22T07:03:10.517Z,64.06
2018-08-22T07:04:10.515Z,64.96
2018-08-22T07:05:10.518Z,63.43
2018-08-22T07:06:10.488Z,62.63
2018-08-22T07:07:10.474Z,63.33
2018-08-22T07:08:10.513Z,61.73
2018-08-22T07:09:10.445Z,61.60
2018-08-22T07:10:10.474Z,60.48
2018-08-22T07:11:10.428Z,60.48
2018-08-22T07:12:10.417Z,60.38
2018-08-22T07:13:10.401Z,60.05
2018-08-22T07:14:10.504Z,60.15
2018-08-22T07:15:10.388Z,59.95
2018-08-22T07:16:10.393Z,60.12
2018-08-22T07:17:10.359Z,60.55
2018-08-22T07:18:10.346Z,60.82
2018-08-22T07:19:10.338Z,59.42
2018-08-22T07:20:10.327Z,60.22
2018-08-22T07:21:10.335Z,60.49
2018-08-22T07:22:10.303Z,60.19
2018-08-22T07:23:10.289Z,60.59
2018-08-22T07:24:10.281Z,60.06
2018-08-22T07:25:10.265Z,58.37
2018-08-22T07:26:10.283Z,58.47
2018-08-22T07:27:10.242Z,55.76
2018-08-22T07:28:10.230Z,55.93
2018-08-22T07:29:10.223Z,55.73
2018-08-22T07:30:10.259Z,55.80
2018-08-22T07:31:10.233Z,56.49
2018-08-22T07:32:10.189Z,56.30
2018-08-22T07:33:10.175Z,56.47
2018-08-22T07:34:10.161Z,56.67
2018-08-22T07:35:10.201Z,55.05
2018-08-22T07:36:10.148Z,53.66
2018-08-22T07:37:10.158Z,53.16
2018-08-22T07:38:10.126Z,54.43
2018-08-22T07:39:10.106Z,55.32
2018-08-22T07:40:10.097Z,54.60
2018-08-22T07:41:10.090Z,53.31
2018-08-22T07:42:10.107Z,54.80
2018-08-22T07:43:10.067Z,54.80
2018-08-22T07:44:10.055Z,53.38
2018-08-22T07:45:10.042Z,52.69
2018-08-22T07:46:10.034Z,53.88
2018-08-22T07:47:10.090Z,53.36
2018-08-22T07:48:10.040Z,52.47
2018-08-22T07:49:10.002Z,51.75
2018-08-22T07:50:10.038Z,52.94
2018-08-22T07:51:09.977Z,52.54
2018-08-22T07:52:09.967Z,52.54
2018-08-22T07:53:09.990Z,52.22
2018-08-22T07:54:09.976Z,51.23
2018-08-22T07:55:09.930Z,51.20
2018-08-22T07:56:09.932Z,51.00
2018-08-22T07:57:09.913Z,49.62
2018-08-22T07:58:09.900Z,50.58
2018-08-22T07:59:09.886Z,50.56
2018-08-22T08:00:10.189Z,50.56
2018-08-22T08:01:09.866Z,49.27
2018-08-22T08:02:10.869Z,47.96
2018-08-22T08:03:09.907Z,47.66
2018-08-22T08:04:09.828Z,48.06
2018-08-22T08:05:09.850Z,46.45
2018-08-22T08:06:09.859Z,47.15
2018-08-22T08:07:09.803Z,47.05
2018-08-22T08:08:09.790Z,46.85
2018-08-22T08:09:09.776Z,46.53
2018-08-22T08:10:09.951Z,46.95
2018-08-22T08:11:09.752Z,47.72
2018-08-22T08:12:09.749Z,48.03
2018-08-22T08:13:09.731Z,47.72
2018-08-22T08:14:09.791Z,47.13
2018-08-22T08:15:09.743Z,47.81
2018-08-22T08:16:09.711Z,46.70
2018-08-22T08:17:09.728Z,44.83
2018-08-22T08:18:09.729Z,45.89
2018-08-22T08:19:09.673Z,45.01
2018-08-22T08:20:09.676Z,45.79
2018-08-22T08:21:09.672Z,46.98
2018-08-22T08:22:09.639Z,45.38
2018-08-22T08:23:09.625Z,44.39
2018-08-22T08:24:09.734Z,45.46
2018-08-22T08:25:09.600Z,44.67
2018-08-22T08:26:09.646Z,43.78
2018-08-22T08:27:09.579Z,43.78
2018-08-22T08:28:09.570Z,43.98
2018-08-22T08:29:09.557Z,43.68
2018-08-22T08:30:09.550Z,44.47
2018-08-22T08:31:09.566Z,44.35
2018-08-22T08:32:09.549Z,45.04
2018-08-22T08:33:09.523Z,45.41
2018-08-22T08:34:09.519Z,45.31
2018-08-22T08:35:09.530Z,44.60
2018-08-22T08:36:09.612Z,44.90
2018-08-22T08:37:09.481Z,44.19
2018-08-22T08:38:09.464Z,43.50
2018-08-22T08:39:09.458Z,43.18
2018-08-22T08:40:09.468Z,44.44
2018-08-22T08:41:09.441Z,41.98
2018-08-22T08:42:09.495Z,41.67
2018-08-22T08:43:09.454Z,42.06
2018-08-22T08:44:09.451Z,42.06
2018-08-22T08:45:09.402Z,41.67
2018-08-22T08:46:09.383Z,41.27
2018-08-22T08:47:09.432Z,41.37
2018-08-22T08:48:09.456Z,42.08
2018-08-22T08:49:09.354Z,43.53
2018-08-22T08:50:09.346Z,42.33
2018-08-22T08:51:09.368Z,42.33
2018-08-22T08:52:09.392Z,42.24
2018-08-22T08:53:09.540Z,41.63
2018-08-22T08:54:09.304Z,42.41
2018-08-22T08:55:09.352Z,41.03
2018-08-22T08:56:09.382Z,41.02
2018-08-22T08:57:09.310Z,42.19
2018-08-22T08:58:09.273Z,41.11
2018-08-22T08:59:09.291Z,41.19
2018-08-22T09:00:09.318Z,40.90
2018-08-22T09:01:09.232Z,41.00
2018-08-22T09:02:09.229Z,39.11
2018-08-22T09:03:09.213Z,40.19
2018-08-22T09:04:09.369Z,41.45
2018-08-22T09:05:09.195Z,39.78
2018-08-22T09:06:09.179Z,41.52
2018-08-22T09:07:09.171Z,37.61
2018-08-22T09:08:09.167Z,37.51
2018-08-22T09:09:09.152Z,40.55
2018-08-22T09:10:09.166Z,40.74
2018-08-22T09:11:09.141Z,40.33
2018-08-22T09:12:09.141Z,38.35
2018-08-22T09:13:09.117Z,38.75
2018-08-22T09:14:09.106Z,37.77
2018-08-22T09:15:09.127Z,37.67
2018-08-22T09:16:09.078Z,36.90
2018-08-22T09:17:09.110Z,36.61
2018-08-22T09:18:09.065Z,37.39
2018-08-22T09:19:09.056Z,37.04
2018-08-22T09:20:09.041Z,37.52
2018-08-22T09:21:09.139Z,41.13
2018-08-22T09:22:09.120Z,36.92
2018-08-22T09:23:09.010Z,41.21
2018-08-22T09:24:09.112Z,39.43
2018-08-22T09:25:09.096Z,37.57
2018-08-22T09:26:08.981Z,37.67
2018-08-22T09:27:09.011Z,38.14
2018-08-22T09:28:09.027Z,39.61
2018-08-22T09:29:08.986Z,37.93
2018-08-22T09:30:08.942Z,34.99
2018-08-22T09:31:08.935Z,35.19
2018-08-22T09:32:08.922Z,35.21
2018-08-22T09:33:08.941Z,35.50
2018-08-22T09:34:08.964Z,35.89
2018-08-22T09:35:08.939Z,37.55
2018-08-22T09:36:08.879Z,37.45
2018-08-22T09:37:08.879Z,39.59
2018-08-22T09:38:08.890Z,39.28
2018-08-22T09:39:08.970Z,38.09
2018-08-22T09:40:08.900Z,37.57
2018-08-22T09:41:08.830Z,38.55
2018-08-22T09:42:08.849Z,37.48
2018-08-22T09:43:08.894Z,37.07
2018-08-22T09:44:08.839Z,36.27
2018-08-22T09:45:08.791Z,35.49
2018-08-22T09:46:08.791Z,34.99
2018-08-22T09:47:08.780Z,34.99
2018-08-22T09:48:08.770Z,36.55
2018-08-22T09:49:08.765Z,36.04
2018-08-22T09:50:08.866Z,34.58
2018-08-22T09:51:08.838Z,35.05
2018-08-22T09:52:08.807Z,36.22
2018-08-22T09:53:08.708Z,35.33
2018-08-22T09:54:08.708Z,34.92
2018-08-22T09:55:08.771Z,33.95
2018-08-22T09:56:08.708Z,34.12
2018-08-22T09:57:08.683Z,34.70
2018-08-22T09:58:08.754Z,32.08
2018-08-22T09:59:08.706Z,32.18
2018-08-22T10:00:08.775Z,33.83
2018-08-22T10:01:08.698Z,35.08
2018-08-22T10:02:08.630Z,34.20
2018-08-22T10:03:08.686Z,34.69
2018-08-22T10:04:08.624Z,33.90
2018-08-22T10:05:08.602Z,33.22
2018-08-22T10:06:08.618Z,31.85
2018-08-22T10:07:08.795Z,33.31
2018-08-22T10:08:08.653Z,33.72
2018-08-22T10:09:08.573Z,31.77
2018-08-22T10:10:08.560Z,34.20
2018-08-22T10:11:08.548Z,32.55
2018-08-22T10:12:08.579Z,34.01
2018-08-22T10:13:08.527Z,33.53
2018-08-22T10:14:08.696Z,34.40
2018-08-22T10:15:08.509Z,33.44
2018-08-22T10:16:08.499Z,33.46
2018-08-22T10:17:08.503Z,33.56
2018-08-22T10:18:08.511Z,33.56
2018-08-22T10:19:08.513Z,32.31
2018-08-22T10:20:08.552Z,30.96
2018-08-22T10:21:08.460Z,32.43
2018-08-22T10:22:08.449Z,35.08
2018-08-22T10:23:08.459Z,33.33
2018-08-22T10:24:08.456Z,35.20
2018-08-22T10:25:08.412Z,36.10
2018-08-22T10:26:08.410Z,37.46
2018-08-22T10:27:08.471Z,36.37
2018-08-22T10:28:08.525Z,36.25
2018-08-22T10:29:08.373Z,34.03
2018-08-22T10:30:08.383Z,33.82
2018-08-22T10:31:08.380Z,37.25
2018-08-22T10:32:08.346Z,35.88
2018-08-22T10:33:08.404Z,37.62
2018-08-22T10:34:08.325Z,36.06
2018-08-22T10:35:08.424Z,36.55
2018-08-22T10:36:08.353Z,35.38
2018-08-22T10:37:08.289Z,32.94
2018-08-22T10:38:08.281Z,37.45
2018-08-22T10:39:08.278Z,36.76
2018-08-22T10:40:08.387Z,36.45
2018-08-22T10:41:08.252Z,35.18
2018-08-22T10:42:08.231Z,36.25
2018-08-22T10:43:08.275Z,36.66
2018-08-22T10:44:08.286Z,35.67
2018-08-22T10:45:08.237Z,36.27
2018-08-22T10:46:08.190Z,35.88
2018-08-22T10:47:08.182Z,36.58
2018-08-22T10:48:08.197Z,35.61
2018-08-22T10:49:08.157Z,34.12
2018-08-22T10:50:08.153Z,36.78
2018-08-22T10:51:08.163Z,36.10
2018-08-22T10:52:08.122Z,37.27
2018-08-22T10:53:08.117Z,37.07
2018-08-22T10:54:08.107Z,36.19
2018-08-22T10:55:08.093Z,37.65
2018-08-22T10:56:08.121Z,36.51
2018-08-22T10:57:08.068Z,37.37
2018-08-22T10:58:08.061Z,36.39
2018-08-22T10:59:08.051Z,35.80
2018-08-22T11:00:08.041Z,35.61
2018-08-22T11:01:08.032Z,34.45
2018-08-22T11:02:08.046Z,35.04
2018-08-22T11:03:08.012Z,35.94
2018-08-22T11:04:08.001Z,37.29
2018-08-22T11:05:07.981Z,37.87
2018-08-22T11:06:07.982Z,35.72
2018-08-22T11:07:07.957Z,35.04
2018-08-22T11:08:07.979Z,37.29
2018-08-22T11:09:07.937Z,36.90
2018-08-22T11:10:07.934Z,35.04
2018-08-22T11:11:07.916Z,37.29
2018-08-22T11:12:07.903Z,37.55
2018-08-22T11:13:07.933Z,37.17
2018-08-22T11:14:07.884Z,36.98
2018-08-22T11:15:07.878Z,36.68
2018-08-22T11:16:07.940Z,35.12
2018-08-22T11:17:07.848Z,36.78
2018-08-22T11:18:07.840Z,36.58
2018-08-22T11:19:07.865Z,37.65
2018-08-22T11:20:07.815Z,37.46
2018-08-22T11:21:07.813Z,36.98
2018-08-22T11:22:07.799Z,34.63
2018-08-22T11:23:07.784Z,36.49
2018-08-22T11:24:07.771Z,36.19
2018-08-22T11:25:07.793Z,36.49
2018-08-22T11:26:07.749Z,35.12
2018-08-22T11:27:07.746Z,35.61
2018-08-22T11:28:07.738Z,36.49
2018-08-22T11:29:07.715Z,36.60
2018-08-22T11:30:07.744Z,36.31
2018-08-22T11:31:07.693Z,36.88
2018-08-22T11:32:07.689Z,36.51
2018-08-22T11:33:07.674Z,36.80
2018-08-22T11:34:07.664Z,33.58
2018-08-22T11:35:07.652Z,34.45
2018-08-22T11:36:07.665Z,36.90
2018-08-22T11:37:07.643Z,36.62
2018-08-22T11:38:07.618Z,37.09
2018-08-22T11:39:07.610Z,36.99
2018-08-22T11:40:07.601Z,37.19
2018-08-22T11:41:07.622Z,35.33
2018-08-22T11:42:07.579Z,36.10
2018-08-22T11:43:07.559Z,36.99
2018-08-22T11:44:07.548Z,36.68
2018-08-22T11:45:07.547Z,35.14
2018-08-22T11:46:07.525Z,35.53
2018-08-22T11:47:07.556Z,36.72
2018-08-22T11:48:07.506Z,37.30
2018-08-22T11:49:07.498Z,37.50
2018-08-22T11:50:07.490Z,34.38
2018-08-22T11:51:07.469Z,35.16
2018-08-22T11:52:07.465Z,33.20
2018-08-22T11:53:07.474Z,33.98
2018-08-22T11:54:07.435Z,37.29
2018-08-22T11:55:07.435Z,35.43
2018-08-22T11:56:07.457Z,34.26
2018-08-22T11:57:07.414Z,33.28
2018-08-22T11:58:07.430Z,33.58
2018-08-22T11:59:07.383Z,34.38
2018-08-22T12:00:07.378Z,34.77
2018-08-22T12:01:07.359Z,36.93
2018-08-22T12:02:07.350Z,38.96
2018-08-22T12:03:07.342Z,39.94
2018-08-22T12:04:07.363Z,35.84
2018-08-22T12:05:07.316Z,33.79
2018-08-22T12:06:07.308Z,37.70
2018-08-22T12:07:07.294Z,37.50
2018-08-22T12:08:07.283Z,34.47
2018-08-22T12:09:07.276Z,35.25
2018-08-22T12:10:07.285Z,34.77
2018-08-22T12:11:07.253Z,35.35
2018-08-22T12:12:07.245Z,35.55
2018-08-22T12:13:07.224Z,38.94
2018-08-22T12:14:07.222Z,38.14
2018-08-22T12:15:07.235Z,34.24
2018-08-22T12:16:07.245Z,34.61
2018-08-22T12:17:07.188Z,36.45
2018-08-22T12:18:07.170Z,34.31
2018-08-22T12:19:07.167Z,32.75
2018-08-22T12:20:07.150Z,35.08
2018-08-22T12:21:07.166Z,33.53
2018-08-22T12:22:07.128Z,33.23
2018-08-22T12:23:07.202Z,34.40
2018-08-22T12:24:07.109Z,33.51
2018-08-22T12:25:07.094Z,36.72
2018-08-22T12:26:07.116Z,35.34
2018-08-22T12:27:07.072Z,36.40
2018-08-22T12:28:07.058Z,35.91
2018-08-22T12:29:07.058Z,34.72
2018-08-22T12:30:07.038Z,31.92
2018-08-22T12:31:07.049Z,35.11
2018-08-22T12:32:07.061Z,33.75
2018-08-22T12:33:07.004Z,32.28
2018-08-22T12:34:07.003Z,33.34
2018-08-22T12:35:06.986Z,34.03
2018-08-22T12:36:06.980Z,34.43
2018-08-22T12:37:06.971Z,34.24
2018-08-22T12:38:06.987Z,30.07
2018-08-22T12:39:06.942Z,33.18
2018-08-22T12:40:06.936Z,34.72
2018-08-22T12:41:06.916Z,34.16
2018-08-22T12:42:06.908Z,33.56
2018-08-22T12:43:06.900Z,33.17
2018-08-22T12:44:06.917Z,34.53
2018-08-22T12:45:06.873Z,34.61
2018-08-22T12:46:06.864Z,34.12
2018-08-22T12:47:06.854Z,30.14
2018-08-22T12:48:06.839Z,34.50
2018-08-22T12:49:06.860Z,34.11
2018-08-22T12:50:06.824Z,34.11
2018-08-22T12:51:06.809Z,34.40
2018-08-22T12:52:06.809Z,31.38